sensor_id;sensor_type;location;lat;lon;timestamp;P1;durP1;ratioP1;P2;durP2;ratioP2
65196;SDS011;51783;52.344;-1.580;2022-08-03T00:01:20;0.38;;;0.22;;
65196;SDS011;51783;52.344;-1.580;2022-08-03T00:03:46;0.77;;;0.15;;
65196;SDS011;51783;52.344;-1.580;2022-08-03T00:06:12;0.88;;;0.40;;
65196;SDS011;51783;52.344;-1.580;2022-08-03T00:08:38;0.40;;;0.30;;
65196;SDS011;51783;52.344;-1.580;2022-08-03T00:11:03;0.30;;;0.20;;
65196;SDS011;51783;52.344;-1.580;2022-08-03T00:13:33;0.45;;;0.25;;
65196;SDS011;51783;52.344;-1.580;2022-08-03T00:15:59;1.17;;;0.28;;
65196;SDS011;51783;52.344;-1.580;2022-08-03T00:18:24;1.15;;;0.20;;
65196;SDS011;51783;52.344;-1.580;2022-08-03T00:20:50;1.75;;;0.40;;
65196;SDS011;51783;52.344;-1.580;2022-08-03T00:23:16;0.80;;;0.30;;
65196;SDS011;51783;52.344;-1.580;2022-08-03T00:25:41;0.22;;;0.20;;
65196;SDS011;51783;52.344;-1.580;2022-08-03T00:28:07;0.63;;;0.32;;
65196;SDS011;51783;52.344;-1.580;2022-08-03T00:30:33;1.63;;;0.40;;
65196;SDS011;51783;52.344;-1.580;2022-08-03T00:33:00;0.82;;;0.28;;
65196;SDS011;51783;52.344;-1.580;2022-08-03T00:35:26;0.47;;;0.20;;
65196;SDS011;51783;52.344;-1.580;2022-08-03T00:37:52;1.10;;;0.35;;
65196;SDS011;51783;52.344;-1.580;2022-08-03T00:40:18;1.23;;;0.40;;
65196;SDS011;51783;52.344;-1.580;2022-08-03T00:42:46;1.58;;;0.50;;
65196;SDS011;51783;52.344;-1.580;2022-08-03T00:45:12;0.73;;;0.35;;
65196;SDS011;51783;52.344;-1.580;2022-08-03T00:47:38;2.25;;;0.60;;
65196;SDS011;51783;52.344;-1.580;2022-08-03T00:50:04;0.85;;;0.40;;
65196;SDS011;51783;52.344;-1.580;2022-08-03T00:52:30;1.45;;;0.30;;
65196;SDS011;51783;52.344;-1.580;2022-08-03T00:54:56;2.40;;;0.35;;
65196;SDS011;51783;52.344;-1.580;2022-08-03T00:57:21;3.33;;;0.40;;
65196;SDS011;51783;52.344;-1.580;2022-08-03T00:59:47;2.15;;;0.98;;
65196;SDS011;51783;52.344;-1.580;2022-08-03T01:02:13;0.57;;;0.28;;
65196;SDS011;51783;52.344;-1.580;2022-08-03T01:04:38;1.70;;;0.47;;
65196;SDS011;51783;52.344;-1.580;2022-08-03T01:12:03;0.80;;;0.30;;
65196;SDS011;51783;52.344;-1.580;2022-08-03T01:14:38;0.73;;;0.30;;
65196;SDS011;51783;52.344;-1.580;2022-08-03T01:17:24;0.77;;;0.30;;
65196;SDS011;51783;52.344;-1.580;2022-08-03T01:19:59;1.02;;;0.40;;
65196;SDS011;51783;52.344;-1.580;2022-08-03T01:22:50;1.00;;;0.35;;
65196;SDS011;51783;52.344;-1.580;2022-08-03T01:31:17;1.30;;;0.63;;
65196;SDS011;51783;52.344;-1.580;2022-08-03T01:33:51;2.63;;;0.40;;
65196;SDS011;51783;52.344;-1.580;2022-08-03T01:36:23;0.95;;;0.40;;
65196;SDS011;51783;52.344;-1.580;2022-08-03T01:39:00;1.40;;;0.40;;
65196;SDS011;51783;52.344;-1.580;2022-08-03T01:41:32;1.65;;;0.50;;
65196;SDS011;51783;52.344;-1.580;2022-08-03T01:44:19;2.00;;;0.57;;
65196;SDS011;51783;52.344;-1.580;2022-08-03T01:46:46;1.33;;;0.50;;
65196;SDS011;51783;52.344;-1.580;2022-08-03T01:49:15;3.03;;;0.60;;
65196;SDS011;51783;52.344;-1.580;2022-08-03T01:51:42;1.58;;;0.40;;
65196;SDS011;51783;52.344;-1.580;2022-08-03T01:54:11;3.00;;;0.70;;
65196;SDS011;51783;52.344;-1.580;2022-08-03T01:56:38;1.30;;;0.40;;
65196;SDS011;51783;52.344;-1.580;2022-08-03T01:59:07;2.33;;;0.50;;
65196;SDS011;51783;52.344;-1.580;2022-08-03T02:01:35;2.80;;;0.80;;
65196;SDS011;51783;52.344;-1.580;2022-08-03T02:04:02;3.13;;;0.50;;
65196;SDS011;51783;52.344;-1.580;2022-08-03T02:06:31;1.05;;;0.40;;
65196;SDS011;51783;52.344;-1.580;2022-08-03T02:08:58;2.03;;;0.70;;
65196;SDS011;51783;52.344;-1.580;2022-08-03T02:11:26;4.13;;;0.60;;
65196;SDS011;51783;52.344;-1.580;2022-08-03T02:13:56;1.00;;;0.50;;
65196;SDS011;51783;52.344;-1.580;2022-08-03T02:16:24;1.40;;;0.40;;
65196;SDS011;51783;52.344;-1.580;2022-08-03T02:18:52;1.73;;;0.50;;
65196;SDS011;51783;52.344;-1.580;2022-08-03T02:21:19;1.90;;;0.50;;
65196;SDS011;51783;52.344;-1.580;2022-08-03T02:23:46;1.48;;;0.50;;
65196;SDS011;51783;52.344;-1.580;2022-08-03T02:26:13;2.58;;;0.68;;
65196;SDS011;51783;52.344;-1.580;2022-08-03T02:28:42;1.48;;;0.50;;
65196;SDS011;51783;52.344;-1.580;2022-08-03T02:31:15;2.60;;;0.60;;
65196;SDS011;51783;52.344;-1.580;2022-08-03T02:33:48;2.17;;;0.43;;
65196;SDS011;51783;52.344;-1.580;2022-08-03T02:36:19;3.00;;;0.55;;
65196;SDS011;51783;52.344;-1.580;2022-08-03T02:38:50;2.38;;;0.60;;
65196;SDS011;51783;52.344;-1.580;2022-08-03T02:41:20;1.17;;;0.43;;
65196;SDS011;51783;52.344;-1.580;2022-08-03T02:43:52;1.80;;;0.70;;
65196;SDS011;51783;52.344;-1.580;2022-08-03T02:46:19;1.17;;;0.60;;
65196;SDS011;51783;52.344;-1.580;2022-08-03T02:48:49;1.65;;;0.45;;
65196;SDS011;51783;52.344;-1.580;2022-08-03T02:51:17;2.17;;;0.73;;
65196;SDS011;51783;52.344;-1.580;2022-08-03T02:53:44;3.42;;;0.43;;
65196;SDS011;51783;52.344;-1.580;2022-08-03T02:56:11;1.17;;;0.40;;
65196;SDS011;51783;52.344;-1.580;2022-08-03T02:58:38;2.17;;;0.40;;
65196;SDS011;51783;52.344;-1.580;2022-08-03T03:01:10;1.05;;;0.47;;
65196;SDS011;51783;52.344;-1.580;2022-08-03T03:03:37;2.13;;;0.50;;
65196;SDS011;51783;52.344;-1.580;2022-08-03T03:06:05;1.02;;;0.40;;
65196;SDS011;51783;52.344;-1.580;2022-08-03T03:08:31;0.93;;;0.45;;
65196;SDS011;51783;52.344;-1.580;2022-08-03T03:10:58;1.90;;;0.60;;
65196;SDS011;51783;52.344;-1.580;2022-08-03T03:13:29;1.42;;;0.63;;
65196;SDS011;51783;52.344;-1.580;2022-08-03T03:15:56;1.52;;;0.47;;
65196;SDS011;51783;52.344;-1.580;2022-08-03T03:18:26;3.08;;;0.70;;
65196;SDS011;51783;52.344;-1.580;2022-08-03T03:20:53;3.65;;;0.60;;
65196;SDS011;51783;52.344;-1.580;2022-08-03T03:23:20;1.77;;;0.40;;
65196;SDS011;51783;52.344;-1.580;2022-08-03T03:25:47;1.20;;;0.32;;
65196;SDS011;51783;52.344;-1.580;2022-08-03T03:28:14;0.80;;;0.50;;
65196;SDS011;51783;52.344;-1.580;2022-08-03T03:30:40;0.90;;;0.50;;
65196;SDS011;51783;52.344;-1.580;2022-08-03T03:33:06;0.85;;;0.43;;
65196;SDS011;51783;52.344;-1.580;2022-08-03T03:35:31;1.67;;;0.60;;
65196;SDS011;51783;52.344;-1.580;2022-08-03T03:37:57;1.05;;;0.40;;
65196;SDS011;51783;52.344;-1.580;2022-08-03T03:40:23;2.13;;;0.57;;
65196;SDS011;51783;52.344;-1.580;2022-08-03T03:42:49;1.85;;;0.65;;
65196;SDS011;51783;52.344;-1.580;2022-08-03T03:45:15;1.30;;;0.40;;
65196;SDS011;51783;52.344;-1.580;2022-08-03T03:47:40;1.67;;;0.60;;
65196;SDS011;51783;52.344;-1.580;2022-08-03T03:50:06;1.35;;;0.50;;
65196;SDS011;51783;52.344;-1.580;2022-08-03T03:52:32;0.93;;;0.50;;
65196;SDS011;51783;52.344;-1.580;2022-08-03T03:54:58;3.33;;;0.70;;
65196;SDS011;51783;52.344;-1.580;2022-08-03T03:57:24;1.00;;;0.30;;
65196;SDS011;51783;52.344;-1.580;2022-08-03T03:59:50;1.63;;;0.35;;
65196;SDS011;51783;52.344;-1.580;2022-08-03T04:02:16;1.05;;;0.40;;
65196;SDS011;51783;52.344;-1.580;2022-08-03T04:04:42;2.00;;;0.50;;
65196;SDS011;51783;52.344;-1.580;2022-08-03T04:07:26;1.35;;;0.40;;
65196;SDS011;51783;52.344;-1.580;2022-08-03T04:10:19;1.10;;;0.43;;
65196;SDS011;51783;52.344;-1.580;2022-08-03T04:13:08;0.35;;;0.25;;
65196;SDS011;51783;52.344;-1.580;2022-08-03T04:15:37;0.93;;;0.43;;
65196;SDS011;51783;52.344;-1.580;2022-08-03T04:18:04;1.38;;;0.60;;
65196;SDS011;51783;52.344;-1.580;2022-08-03T04:20:34;1.17;;;0.60;;
65196;SDS011;51783;52.344;-1.580;2022-08-03T04:23:02;1.38;;;0.45;;
65196;SDS011;51783;52.344;-1.580;2022-08-03T04:25:31;1.48;;;0.40;;
65196;SDS011;51783;52.344;-1.580;2022-08-03T04:27:59;1.33;;;0.40;;
65196;SDS011;51783;52.344;-1.580;2022-08-03T04:30:26;1.92;;;0.50;;
65196;SDS011;51783;52.344;-1.580;2022-08-03T04:32:57;0.93;;;0.45;;
65196;SDS011;51783;52.344;-1.580;2022-08-03T04:35:25;1.30;;;0.40;;
65196;SDS011;51783;52.344;-1.580;2022-08-03T04:37:57;1.30;;;0.50;;
65196;SDS011;51783;52.344;-1.580;2022-08-03T04:40:34;1.10;;;0.40;;
65196;SDS011;51783;52.344;-1.580;2022-08-03T04:43:03;0.98;;;0.50;;
65196;SDS011;51783;52.344;-1.580;2022-08-03T04:45:30;0.75;;;0.40;;
65196;SDS011;51783;52.344;-1.580;2022-08-03T04:47:58;2.70;;;0.50;;
65196;SDS011;51783;52.344;-1.580;2022-08-03T04:50:24;1.42;;;0.40;;
65196;SDS011;51783;52.344;-1.580;2022-08-03T04:52:52;0.88;;;0.32;;
65196;SDS011;51783;52.344;-1.580;2022-08-03T04:55:25;2.47;;;0.50;;
65196;SDS011;51783;52.344;-1.580;2022-08-03T04:57:54;1.42;;;0.50;;
65196;SDS011;51783;52.344;-1.580;2022-08-03T05:00:21;1.67;;;0.52;;
65196;SDS011;51783;52.344;-1.580;2022-08-03T05:02:47;0.80;;;0.60;;
65196;SDS011;51783;52.344;-1.580;2022-08-03T05:05:13;1.13;;;0.30;;
65196;SDS011;51783;52.344;-1.580;2022-08-03T05:07:40;2.53;;;0.50;;
65196;SDS011;51783;52.344;-1.580;2022-08-03T05:10:07;1.33;;;0.52;;
65196;SDS011;51783;52.344;-1.580;2022-08-03T05:12:33;1.35;;;0.43;;
65196;SDS011;51783;52.344;-1.580;2022-08-03T05:15:03;2.22;;;0.50;;
65196;SDS011;51783;52.344;-1.580;2022-08-03T05:17:29;2.30;;;0.63;;
65196;SDS011;51783;52.344;-1.580;2022-08-03T05:19:55;1.52;;;0.65;;
65196;SDS011;51783;52.344;-1.580;2022-08-03T05:22:21;0.80;;;0.43;;
65196;SDS011;51783;52.344;-1.580;2022-08-03T05:24:47;0.82;;;0.30;;
65196;SDS011;51783;52.344;-1.580;2022-08-03T05:27:13;2.80;;;0.50;;
65196;SDS011;51783;52.344;-1.580;2022-08-03T05:29:43;1.90;;;0.43;;
65196;SDS011;51783;52.344;-1.580;2022-08-03T05:32:14;0.63;;;0.30;;
65196;SDS011;51783;52.344;-1.580;2022-08-03T05:34:40;1.65;;;0.47;;
65196;SDS011;51783;52.344;-1.580;2022-08-03T05:37:06;0.60;;;0.30;;
65196;SDS011;51783;52.344;-1.580;2022-08-03T05:39:32;1.25;;;0.40;;
65196;SDS011;51783;52.344;-1.580;2022-08-03T05:41:58;2.63;;;0.50;;
65196;SDS011;51783;52.344;-1.580;2022-08-03T05:44:24;0.70;;;0.30;;
65196;SDS011;51783;52.344;-1.580;2022-08-03T05:46:50;1.33;;;0.30;;
65196;SDS011;51783;52.344;-1.580;2022-08-03T05:49:16;1.65;;;0.40;;
65196;SDS011;51783;52.344;-1.580;2022-08-03T05:51:42;1.00;;;0.40;;
65196;SDS011;51783;52.344;-1.580;2022-08-03T05:54:08;1.90;;;0.52;;
65196;SDS011;51783;52.344;-1.580;2022-08-03T05:56:33;1.17;;;0.40;;
65196;SDS011;51783;52.344;-1.580;2022-08-03T05:58:59;2.28;;;0.40;;
65196;SDS011;51783;52.344;-1.580;2022-08-03T06:01:25;0.65;;;0.25;;
65196;SDS011;51783;52.344;-1.580;2022-08-03T06:03:50;1.85;;;0.60;;
65196;SDS011;51783;52.344;-1.580;2022-08-03T06:06:16;0.88;;;0.20;;
65196;SDS011;51783;52.344;-1.580;2022-08-03T06:08:43;1.00;;;0.50;;
65196;SDS011;51783;52.344;-1.580;2022-08-03T06:11:09;0.88;;;0.30;;
65196;SDS011;51783;52.344;-1.580;2022-08-03T06:13:35;1.27;;;0.40;;
65196;SDS011;51783;52.344;-1.580;2022-08-03T06:16:01;1.38;;;0.47;;
65196;SDS011;51783;52.344;-1.580;2022-08-03T06:18:27;0.90;;;0.40;;
65196;SDS011;51783;52.344;-1.580;2022-08-03T06:20:53;1.05;;;0.43;;
65196;SDS011;51783;52.344;-1.580;2022-08-03T06:23:19;1.02;;;0.40;;
65196;SDS011;51783;52.344;-1.580;2022-08-03T06:25:44;0.75;;;0.40;;
65196;SDS011;51783;52.344;-1.580;2022-08-03T06:28:11;2.05;;;0.40;;
65196;SDS011;51783;52.344;-1.580;2022-08-03T06:30:38;1.70;;;0.40;;
65196;SDS011;51783;52.344;-1.580;2022-08-03T06:33:04;0.60;;;0.40;;
65196;SDS011;51783;52.344;-1.580;2022-08-03T06:35:30;1.00;;;0.43;;
65196;SDS011;51783;52.344;-1.580;2022-08-03T06:37:55;1.50;;;0.50;;
65196;SDS011;51783;52.344;-1.580;2022-08-03T06:40:22;0.75;;;0.40;;
65196;SDS011;51783;52.344;-1.580;2022-08-03T06:42:59;1.60;;;0.55;;
65196;SDS011;51783;52.344;-1.580;2022-08-03T06:45:26;1.25;;;0.30;;
65196;SDS011;51783;52.344;-1.580;2022-08-03T06:50:31;1.10;;;0.40;;
65196;SDS011;51783;52.344;-1.580;2022-08-03T06:52:58;1.15;;;0.40;;
65196;SDS011;51783;52.344;-1.580;2022-08-03T06:55:24;2.05;;;0.55;;
65196;SDS011;51783;52.344;-1.580;2022-08-03T06:57:51;0.73;;;0.30;;
65196;SDS011;51783;52.344;-1.580;2022-08-03T07:00:17;0.73;;;0.40;;
65196;SDS011;51783;52.344;-1.580;2022-08-03T07:02:43;1.77;;;0.70;;
65196;SDS011;51783;52.344;-1.580;2022-08-03T07:05:09;1.63;;;0.30;;
65196;SDS011;51783;52.344;-1.580;2022-08-03T07:07:35;1.75;;;0.30;;
65196;SDS011;51783;52.344;-1.580;2022-08-03T07:10:02;1.48;;;0.60;;
65196;SDS011;51783;52.344;-1.580;2022-08-03T07:12:29;1.85;;;0.40;;
65196;SDS011;51783;52.344;-1.580;2022-08-03T07:14:56;1.52;;;0.40;;
65196;SDS011;51783;52.344;-1.580;2022-08-03T07:17:22;1.00;;;0.45;;
65196;SDS011;51783;52.344;-1.580;2022-08-03T07:19:48;0.70;;;0.30;;
65196;SDS011;51783;52.344;-1.580;2022-08-03T07:22:14;1.55;;;0.45;;
65196;SDS011;51783;52.344;-1.580;2022-08-03T07:24:40;1.63;;;0.50;;
65196;SDS011;51783;52.344;-1.580;2022-08-03T07:27:06;0.98;;;0.47;;
65196;SDS011;51783;52.344;-1.580;2022-08-03T07:29:33;0.82;;;0.22;;
65196;SDS011;51783;52.344;-1.580;2022-08-03T07:31:59;0.75;;;0.45;;
65196;SDS011;51783;52.344;-1.580;2022-08-03T07:34:25;2.35;;;0.47;;
65196;SDS011;51783;52.344;-1.580;2022-08-03T07:36:51;0.85;;;0.30;;
65196;SDS011;51783;52.344;-1.580;2022-08-03T07:39:16;1.85;;;0.50;;
65196;SDS011;51783;52.344;-1.580;2022-08-03T07:41:42;0.63;;;0.30;;
65196;SDS011;51783;52.344;-1.580;2022-08-03T07:44:08;1.98;;;0.50;;
65196;SDS011;51783;52.344;-1.580;2022-08-03T07:46:34;2.90;;;0.40;;
65196;SDS011;51783;52.344;-1.580;2022-08-03T07:48:59;1.13;;;0.40;;
65196;SDS011;51783;52.344;-1.580;2022-08-03T07:51:25;1.33;;;0.35;;
65196;SDS011;51783;52.344;-1.580;2022-08-03T07:53:51;1.92;;;0.50;;
65196;SDS011;51783;52.344;-1.580;2022-08-03T07:56:17;1.13;;;0.30;;
65196;SDS011;51783;52.344;-1.580;2022-08-03T07:58:43;1.67;;;0.32;;
65196;SDS011;51783;52.344;-1.580;2022-08-03T08:01:09;1.27;;;0.40;;
65196;SDS011;51783;52.344;-1.580;2022-08-03T08:03:35;3.58;;;0.40;;
65196;SDS011;51783;52.344;-1.580;2022-08-03T08:06:01;2.45;;;0.60;;
65196;SDS011;51783;52.344;-1.580;2022-08-03T08:08:26;3.03;;;0.30;;
65196;SDS011;51783;52.344;-1.580;2022-08-03T08:10:52;1.25;;;0.30;;
65196;SDS011;51783;52.344;-1.580;2022-08-03T08:13:18;2.50;;;0.30;;
65196;SDS011;51783;52.344;-1.580;2022-08-03T08:15:43;6.57;;;0.52;;
65196;SDS011;51783;52.344;-1.580;2022-08-03T08:18:09;5.70;;;0.40;;
65196;SDS011;51783;52.344;-1.580;2022-08-03T08:20:36;9.70;;;1.05;;
65196;SDS011;51783;52.344;-1.580;2022-08-03T08:23:03;2.90;;;0.50;;
65196;SDS011;51783;52.344;-1.580;2022-08-03T08:25:31;6.88;;;0.60;;
65196;SDS011;51783;52.344;-1.580;2022-08-03T08:27:58;28.77;;;1.20;;
65196;SDS011;51783;52.344;-1.580;2022-08-03T08:30:28;4.07;;;0.55;;
65196;SDS011;51783;52.344;-1.580;2022-08-03T08:32:57;2.92;;;0.40;;
65196;SDS011;51783;52.344;-1.580;2022-08-03T08:35:23;2.30;;;0.30;;
65196;SDS011;51783;52.344;-1.580;2022-08-03T08:37:49;3.28;;;0.70;;
65196;SDS011;51783;52.344;-1.580;2022-08-03T08:40:15;1.45;;;0.40;;
65196;SDS011;51783;52.344;-1.580;2022-08-03T08:42:42;0.35;;;0.20;;
65196;SDS011;51783;52.344;-1.580;2022-08-03T08:45:09;2.80;;;0.30;;
65196;SDS011;51783;52.344;-1.580;2022-08-03T08:47:40;2.42;;;0.35;;
65196;SDS011;51783;52.344;-1.580;2022-08-03T08:50:10;3.40;;;0.43;;
65196;SDS011;51783;52.344;-1.580;2022-08-03T08:52:39;1.45;;;0.25;;
65196;SDS011;51783;52.344;-1.580;2022-08-03T08:55:09;1.85;;;0.30;;
65196;SDS011;51783;52.344;-1.580;2022-08-03T08:58:00;24.33;;;1.48;;
65196;SDS011;51783;52.344;-1.580;2022-08-03T09:00:29;3.40;;;0.40;;
65196;SDS011;51783;52.344;-1.580;2022-08-03T09:02:55;6.05;;;0.75;;
65196;SDS011;51783;52.344;-1.580;2022-08-03T09:05:21;5.32;;;0.60;;
65196;SDS011;51783;52.344;-1.580;2022-08-03T09:07:47;4.95;;;0.95;;
65196;SDS011;51783;52.344;-1.580;2022-08-03T09:10:14;4.57;;;0.40;;
65196;SDS011;51783;52.344;-1.580;2022-08-03T09:12:47;1.60;;;0.60;;
65196;SDS011;51783;52.344;-1.580;2022-08-03T09:15:15;2.95;;;0.38;;
65196;SDS011;51783;52.344;-1.580;2022-08-03T09:17:43;2.70;;;0.45;;
65196;SDS011;51783;52.344;-1.580;2022-08-03T09:20:08;1.92;;;0.40;;
65196;SDS011;51783;52.344;-1.580;2022-08-03T09:22:35;3.92;;;0.40;;
65196;SDS011;51783;52.344;-1.580;2022-08-03T09:25:17;0.52;;;0.22;;
65196;SDS011;51783;52.344;-1.580;2022-08-03T09:27:43;0.85;;;0.30;;
65196;SDS011;51783;52.344;-1.580;2022-08-03T09:30:13;4.07;;;0.73;;
65196;SDS011;51783;52.344;-1.580;2022-08-03T09:32:40;6.60;;;0.70;;
65196;SDS011;51783;52.344;-1.580;2022-08-03T09:35:09;1.02;;;0.40;;
65196;SDS011;51783;52.344;-1.580;2022-08-03T09:37:35;1.60;;;0.50;;
65196;SDS011;51783;52.344;-1.580;2022-08-03T09:40:01;3.08;;;0.60;;
65196;SDS011;51783;52.344;-1.580;2022-08-03T09:42:28;2.58;;;0.50;;
65196;SDS011;51783;52.344;-1.580;2022-08-03T09:44:54;3.63;;;0.50;;
65196;SDS011;51783;52.344;-1.580;2022-08-03T09:47:29;1.05;;;0.32;;
65196;SDS011;51783;52.344;-1.580;2022-08-03T09:49:59;2.72;;;0.88;;
65196;SDS011;51783;52.344;-1.580;2022-08-03T09:52:36;7.95;;;0.80;;
65196;SDS011;51783;52.344;-1.580;2022-08-03T09:55:11;1.38;;;0.47;;
65196;SDS011;51783;52.344;-1.580;2022-08-03T09:57:38;1.08;;;0.40;;
65196;SDS011;51783;52.344;-1.580;2022-08-03T10:00:14;3.83;;;0.50;;
65196;SDS011;51783;52.344;-1.580;2022-08-03T10:02:42;1.02;;;0.40;;
65196;SDS011;51783;52.344;-1.580;2022-08-03T10:05:10;3.17;;;0.50;;
65196;SDS011;51783;52.344;-1.580;2022-08-03T10:07:46;2.38;;;0.60;;
65196;SDS011;51783;52.344;-1.580;2022-08-03T10:10:15;1.85;;;0.35;;
65196;SDS011;51783;52.344;-1.580;2022-08-03T10:12:42;1.40;;;0.30;;
65196;SDS011;51783;52.344;-1.580;2022-08-03T10:15:08;4.03;;;0.57;;
65196;SDS011;51783;52.344;-1.580;2022-08-03T10:17:35;5.95;;;0.70;;
65196;SDS011;51783;52.344;-1.580;2022-08-03T10:20:05;3.13;;;0.60;;
65196;SDS011;51783;52.344;-1.580;2022-08-03T10:22:33;15.43;;;1.15;;
65196;SDS011;51783;52.344;-1.580;2022-08-03T10:25:13;26.33;;;1.52;;
65196;SDS011;51783;52.344;-1.580;2022-08-03T10:27:41;4.43;;;0.75;;
65196;SDS011;51783;52.344;-1.580;2022-08-03T10:30:12;5.38;;;0.60;;
65196;SDS011;51783;52.344;-1.580;2022-08-03T10:35:18;8.80;;;0.70;;
65196;SDS011;51783;52.344;-1.580;2022-08-03T10:37:59;3.95;;;0.63;;
65196;SDS011;51783;52.344;-1.580;2022-08-03T10:40:55;8.13;;;0.80;;
65196;SDS011;51783;52.344;-1.580;2022-08-03T10:43:26;33.20;;;4.45;;
65196;SDS011;51783;52.344;-1.580;2022-08-03T10:48:22;26.23;;;3.75;;
65196;SDS011;51783;52.344;-1.580;2022-08-03T10:50:50;24.40;;;3.25;;
65196;SDS011;51783;52.344;-1.580;2022-08-03T10:53:16;16.30;;;2.45;;
65196;SDS011;51783;52.344;-1.580;2022-08-03T10:56:02;12.75;;;1.63;;
65196;SDS011;51783;52.344;-1.580;2022-08-03T10:58:51;16.70;;;1.65;;
65196;SDS011;51783;52.344;-1.580;2022-08-03T11:01:18;16.05;;;1.70;;
65196;SDS011;51783;52.344;-1.580;2022-08-03T11:06:29;5.43;;;1.02;;
65196;SDS011;51783;52.344;-1.580;2022-08-03T11:11:41;11.23;;;1.38;;
65196;SDS011;51783;52.344;-1.580;2022-08-03T11:14:10;6.32;;;0.80;;
65196;SDS011;51783;52.344;-1.580;2022-08-03T11:16:41;4.78;;;1.05;;
65196;SDS011;51783;52.344;-1.580;2022-08-03T11:19:11;7.68;;;0.65;;
65196;SDS011;51783;52.344;-1.580;2022-08-03T11:37:35;1.08;;;0.50;;
65196;SDS011;51783;52.344;-1.580;2022-08-03T11:46:05;5.57;;;0.85;;
65196;SDS011;51783;52.344;-1.580;2022-08-03T11:48:41;3.33;;;0.73;;
65196;SDS011;51783;52.344;-1.580;2022-08-03T11:51:22;3.38;;;0.70;;
65196;SDS011;51783;52.344;-1.580;2022-08-03T11:53:59;2.72;;;0.60;;
65196;SDS011;51783;52.344;-1.580;2022-08-03T11:56:43;2.38;;;0.60;;
65196;SDS011;51783;52.344;-1.580;2022-08-03T11:59:13;8.10;;;0.60;;
65196;SDS011;51783;52.344;-1.580;2022-08-03T12:01:43;4.22;;;0.50;;
65196;SDS011;51783;52.344;-1.580;2022-08-03T12:04:10;3.78;;;0.68;;
65196;SDS011;51783;52.344;-1.580;2022-08-03T12:06:36;1.35;;;0.63;;
65196;SDS011;51783;52.344;-1.580;2022-08-03T12:09:20;4.22;;;0.88;;
65196;SDS011;51783;52.344;-1.580;2022-08-03T12:11:50;1.02;;;0.77;;
65196;SDS011;51783;52.344;-1.580;2022-08-03T12:14:17;1.75;;;0.68;;
65196;SDS011;51783;52.344;-1.580;2022-08-03T12:16:47;1.90;;;0.80;;
65196;SDS011;51783;52.344;-1.580;2022-08-03T12:19:13;1.65;;;0.70;;
65196;SDS011;51783;52.344;-1.580;2022-08-03T12:21:46;1.77;;;0.80;;
65196;SDS011;51783;52.344;-1.580;2022-08-03T12:24:12;2.47;;;0.95;;
65196;SDS011;51783;52.344;-1.580;2022-08-03T12:26:42;1.73;;;0.80;;
65196;SDS011;51783;52.344;-1.580;2022-08-03T12:29:19;2.05;;;0.80;;
65196;SDS011;51783;52.344;-1.580;2022-08-03T12:31:46;3.55;;;0.98;;
65196;SDS011;51783;52.344;-1.580;2022-08-03T12:34:12;2.25;;;0.80;;
65196;SDS011;51783;52.344;-1.580;2022-08-03T12:36:48;2.13;;;0.90;;
65196;SDS011;51783;52.344;-1.580;2022-08-03T12:39:21;4.00;;;1.38;;
65196;SDS011;51783;52.344;-1.580;2022-08-03T12:41:51;3.80;;;1.35;;
65196;SDS011;51783;52.344;-1.580;2022-08-03T12:44:27;2.45;;;0.90;;
65196;SDS011;51783;52.344;-1.580;2022-08-03T12:46:57;6.78;;;1.10;;
65196;SDS011;51783;52.344;-1.580;2022-08-03T12:49:24;3.30;;;1.20;;
65196;SDS011;51783;52.344;-1.580;2022-08-03T12:54:17;3.25;;;0.90;;
65196;SDS011;51783;52.344;-1.580;2022-08-03T12:59:29;4.72;;;1.00;;
65196;SDS011;51783;52.344;-1.580;2022-08-03T13:01:58;9.13;;;1.33;;
65196;SDS011;51783;52.344;-1.580;2022-08-03T13:04:29;8.68;;;1.35;;
65196;SDS011;51783;52.344;-1.580;2022-08-03T13:07:03;3.92;;;1.25;;
65196;SDS011;51783;52.344;-1.580;2022-08-03T13:09:41;4.43;;;1.20;;
65196;SDS011;51783;52.344;-1.580;2022-08-03T13:12:09;3.10;;;1.00;;
65196;SDS011;51783;52.344;-1.580;2022-08-03T13:14:37;4.25;;;1.20;;
65196;SDS011;51783;52.344;-1.580;2022-08-03T13:17:03;2.25;;;1.00;;
65196;SDS011;51783;52.344;-1.580;2022-08-03T13:19:36;4.70;;;1.15;;
65196;SDS011;51783;52.344;-1.580;2022-08-03T13:22:12;1.88;;;0.90;;
65196;SDS011;51783;52.344;-1.580;2022-08-03T13:24:39;3.15;;;1.33;;
65196;SDS011;51783;52.344;-1.580;2022-08-03T13:27:05;2.70;;;1.00;;
65196;SDS011;51783;52.344;-1.580;2022-08-03T13:29:32;8.52;;;1.40;;
65196;SDS011;51783;52.344;-1.580;2022-08-03T13:31:59;6.50;;;1.70;;
65196;SDS011;51783;52.344;-1.580;2022-08-03T13:34:28;6.30;;;1.35;;
65196;SDS011;51783;52.344;-1.580;2022-08-03T13:36:54;6.18;;;1.30;;
65196;SDS011;51783;52.344;-1.580;2022-08-03T13:39:20;5.78;;;1.40;;
65196;SDS011;51783;52.344;-1.580;2022-08-03T13:41:46;2.97;;;1.10;;
65196;SDS011;51783;52.344;-1.580;2022-08-03T13:44:12;9.00;;;1.45;;
65196;SDS011;51783;52.344;-1.580;2022-08-03T13:46:38;3.53;;;1.10;;
65196;SDS011;51783;52.344;-1.580;2022-08-03T13:49:04;7.13;;;1.67;;
65196;SDS011;51783;52.344;-1.580;2022-08-03T13:51:30;9.20;;;1.75;;
65196;SDS011;51783;52.344;-1.580;2022-08-03T13:54:04;4.60;;;1.65;;
65196;SDS011;51783;52.344;-1.580;2022-08-03T13:56:30;3.03;;;1.20;;
65196;SDS011;51783;52.344;-1.580;2022-08-03T13:58:56;3.17;;;1.00;;
65196;SDS011;51783;52.344;-1.580;2022-08-03T14:01:23;4.20;;;1.63;;
65196;SDS011;51783;52.344;-1.580;2022-08-03T14:03:49;5.75;;;1.17;;
65196;SDS011;51783;52.344;-1.580;2022-08-03T14:06:20;2.83;;;1.30;;
65196;SDS011;51783;52.344;-1.580;2022-08-03T14:08:47;3.22;;;1.13;;
65196;SDS011;51783;52.344;-1.580;2022-08-03T14:11:14;4.13;;;1.20;;
65196;SDS011;51783;52.344;-1.580;2022-08-03T14:13:40;4.15;;;1.17;;
65196;SDS011;51783;52.344;-1.580;2022-08-03T14:16:06;11.00;;;1.25;;
65196;SDS011;51783;52.344;-1.580;2022-08-03T14:18:32;2.22;;;1.02;;
65196;SDS011;51783;52.344;-1.580;2022-08-03T14:20:58;9.32;;;1.40;;
65196;SDS011;51783;52.344;-1.580;2022-08-03T14:23:26;4.70;;;1.40;;
65196;SDS011;51783;52.344;-1.580;2022-08-03T14:25:51;5.30;;;1.40;;
65196;SDS011;51783;52.344;-1.580;2022-08-03T14:28:18;5.32;;;0.88;;
65196;SDS011;51783;52.344;-1.580;2022-08-03T14:30:46;6.85;;;1.42;;
65196;SDS011;51783;52.344;-1.580;2022-08-03T14:33:12;8.60;;;1.00;;
65196;SDS011;51783;52.344;-1.580;2022-08-03T14:35:38;3.30;;;0.90;;
65196;SDS011;51783;52.344;-1.580;2022-08-03T14:38:04;2.03;;;1.00;;
65196;SDS011;51783;52.344;-1.580;2022-08-03T14:40:30;9.30;;;0.95;;
65196;SDS011;51783;52.344;-1.580;2022-08-03T14:42:56;2.85;;;1.10;;
65196;SDS011;51783;52.344;-1.580;2022-08-03T14:45:22;2.13;;;1.00;;
65196;SDS011;51783;52.344;-1.580;2022-08-03T14:47:48;4.18;;;1.10;;
65196;SDS011;51783;52.344;-1.580;2022-08-03T14:50:15;3.28;;;0.98;;
65196;SDS011;51783;52.344;-1.580;2022-08-03T14:52:40;4.38;;;1.00;;
65196;SDS011;51783;52.344;-1.580;2022-08-03T14:55:06;5.38;;;1.35;;
65196;SDS011;51783;52.344;-1.580;2022-08-03T14:57:32;11.88;;;1.30;;
65196;SDS011;51783;52.344;-1.580;2022-08-03T14:59:59;11.80;;;1.55;;
65196;SDS011;51783;52.344;-1.580;2022-08-03T15:02:25;11.05;;;1.30;;
65196;SDS011;51783;52.344;-1.580;2022-08-03T15:04:53;9.68;;;1.10;;
65196;SDS011;51783;52.344;-1.580;2022-08-03T15:07:18;6.07;;;1.05;;
65196;SDS011;51783;52.344;-1.580;2022-08-03T15:09:44;6.53;;;1.45;;
65196;SDS011;51783;52.344;-1.580;2022-08-03T15:12:10;7.90;;;1.38;;
65196;SDS011;51783;52.344;-1.580;2022-08-03T15:14:36;3.00;;;1.10;;
65196;SDS011;51783;52.344;-1.580;2022-08-03T15:17:02;4.60;;;1.20;;
65196;SDS011;51783;52.344;-1.580;2022-08-03T15:19:28;4.18;;;1.30;;
65196;SDS011;51783;52.344;-1.580;2022-08-03T15:21:53;5.60;;;1.33;;
65196;SDS011;51783;52.344;-1.580;2022-08-03T15:24:19;4.72;;;1.15;;
65196;SDS011;51783;52.344;-1.580;2022-08-03T15:26:45;3.20;;;1.10;;
65196;SDS011;51783;52.344;-1.580;2022-08-03T15:29:11;3.80;;;0.93;;
65196;SDS011;51783;52.344;-1.580;2022-08-03T15:31:37;2.15;;;1.00;;